Time;durP1;ratioP1;P1;durP2;ratioP2;P2;SDS_P1;SDS_P2;PMS_P1;PMS_P2;Temp;Humidity;BMP_temperature;BMP_pressure;BME280_temperature;BME280_humidity;BME280_pressure;Samples;Min_cycle;Max_cycle;Signal;HPM_P1;HPM_P2
2022/12/01 00:00:17;;;;;;;57.92;52.10;;;;;;;1.72;100.00;102055.28;4983350;28;20133;-88
2022/12/01 00:02:45;;;;;;;59.38;54.10;;;;;;;1.73;100.00;102056.97;4992305;28;20046;-88
2022/12/01 00:05:14;;;;;;;53.63;48.95;;;;;;;3.04;100.00;102055.50;4982989;28;20113;-88
2022/12/01 00:07:59;;;;;;;55.38;50.47;;;;;;;1.86;100.00;102050.81;4983485;28;20058;-88
2022/12/01 00:10:27;;;;;;;53.42;48.75;;;;;;;2.08;100.00;102044.75;4991126;28;20074;-88
2022/12/01 00:12:58;;;;;;;52.20;47.92;;;;;;;1.87;100.00;102039.38;4978861;28;20963;-88
2022/12/01 00:15:33;;;;;;;58.30;53.20;;;;;;;2.98;100.00;102033.22;5018974;28;20049;-88
2022/12/01 00:18:04;;;;;;;53.72;48.80;;;;;;;1.91;100.00;102049.50;5026691;28;20546;-89
2022/12/01 00:20:33;;;;;;;54.78;49.33;;;;;;;1.69;100.00;102052.06;5015899;28;20054;-88
2022/12/01 00:23:04;;;;;;;55.33;49.88;;;;;;;1.83;100.00;102068.41;5019207;28;20053;-88
2022/12/01 00:25:32;;;;;;;54.90;49.03;;;;;;;1.62;100.00;102059.56;5024349;28;20052;-88
2022/12/01 00:27:59;;;;;;;59.05;53.88;;;;;;;2.12;100.00;102061.91;5019426;28;20080;-88
2022/12/01 00:30:29;;;;;;;55.10;49.88;;;;;;;1.90;100.00;102053.06;5026841;28;20058;-88
2022/12/01 00:32:57;;;;;;;54.50;49.60;;;;;;;1.81;100.00;102051.97;5021507;28;20108;-88
2022/12/01 00:35:25;;;;;;;55.35;49.67;;;;;;;2.81;100.00;102051.25;5028127;28;20041;-88
2022/12/01 00:37:52;;;;;;;54.95;49.88;;;;;;;1.92;100.00;102050.34;5024553;28;20085;-88
2022/12/01 00:40:24;;;;;;;59.47;54.45;;;;;;;1.80;100.00;102042.47;5031343;28;20123;-88
2022/12/01 00:42:52;;;;;;;56.88;51.42;;;;;;;1.72;100.00;102044.81;5028397;28;20128;-88
2022/12/01 00:45:26;;;;;;;57.58;52.10;;;;;;;1.66;100.00;102045.28;5024156;28;20045;-88
2022/12/01 00:48:14;;;;;;;56.67;51.35;;;;;;;2.17;100.00;102044.06;5033240;28;20072;-88
2022/12/01 00:50:47;;;;;;;57.97;52.63;;;;;;;1.56;100.00;102046.91;5027205;28;20118;-88
2022/12/01 00:53:14;;;;;;;60.45;54.47;;;;;;;2.06;100.00;102037.03;5029365;28;20054;-88
2022/12/01 00:55:50;;;;;;;55.95;50.78;;;;;;;2.18;100.00;102035.22;5032028;28;20513;-88
2022/12/01 00:58:20;;;;;;;55.67;50.50;;;;;;;1.61;100.00;102036.94;5031481;28;20057;-88
2022/12/01 01:00:48;;;;;;;60.70;54.85;;;;;;;1.44;100.00;102032.97;5022324;28;20049;-88
2022/12/01 01:03:15;;;;;;;63.38;57.28;;;;;;;1.32;100.00;102032.06;5032269;28;20074;-88
2022/12/01 01:05:43;;;;;;;60.50;54.92;;;;;;;1.34;100.00;102035.44;5027299;28;20565;-88
2022/12/01 01:08:14;;;;;;;58.17;52.33;;;;;;;1.39;100.00;102032.44;5023676;28;20103;-89
2022/12/01 01:10:44;;;;;;;60.10;54.25;;;;;;;1.97;100.00;102022.84;5025021;28;20128;-88
2022/12/01 01:13:14;;;;;;;58.33;52.83;;;;;;;1.56;100.00;102031.22;5016309;28;20503;-89
2022/12/01 01:15:45;;;;;;;64.28;58.22;;;;;;;1.40;100.00;102022.84;5032374;28;20052;-88
2022/12/01 01:18:12;;;;;;;68.75;62.40;;;;;;;1.54;100.00;102022.63;5025267;28;20045;-88
2022/12/01 01:20:39;;;;;;;56.35;51.03;;;;;;;1.84;100.00;102011.63;5028661;28;20058;-88
2022/12/01 01:23:14;;;;;;;58.45;52.92;;;;;;;1.52;100.00;102019.31;5029371;28;20050;-88
2022/12/01 01:25:44;;;;;;;60.80;54.85;;;;;;;1.43;100.00;102027.84;5017749;28;20045;-88
2022/12/01 01:28:12;;;;;;;63.67;57.50;;;;;;;1.33;100.00;102014.59;5028363;28;20057;-88
2022/12/01 01:30:39;;;;;;;63.60;58.00;;;;;;;1.54;100.00;102012.16;5027493;28;20045;-89
2022/12/01 01:33:06;;;;;;;59.97;54.10;;;;;;;1.44;100.00;102008.56;5014904;28;20547;-88
2022/12/01 01:35:34;;;;;;;66.00;59.42;;;;;;;1.40;100.00;102005.34;5028759;28;20105;-88
2022/12/01 01:38:02;;;;;;;62.15;56.30;;;;;;;1.49;100.00;102009.06;5020959;28;20107;-88
2022/12/01 01:40:30;;;;;;;61.53;55.80;;;;;;;1.42;100.00;102000.81;5032158;28;20056;-88
2022/12/01 01:42:58;;;;;;;60.63;55.42;;;;;;;1.54;100.00;102001.69;5014399;28;20052;-88
2022/12/01 01:45:30;;;;;;;58.50;52.88;;;;;;;1.98;100.00;102000.09;5028070;28;20377;-88
2022/12/01 01:48:03;;;;;;;60.92;54.47;;;;;;;1.48;100.00;101994.28;5016270;28;20058;-88
2022/12/01 01:50:32;;;;;;;63.75;57.72;;;;;;;1.40;100.00;102000.09;5026800;28;20499;-87
2022/12/01 01:53:03;;;;;;;65.13;59.00;;;;;;;1.58;100.00;101996.09;5014799;28;20431;-88
2022/12/01 01:55:43;;;;;;;63.15;57.22;;;;;;;1.47;100.00;101998.69;5026529;28;20045;-88
2022/12/01 01:58:16;;;;;;;62.40;56.55;;;;;;;1.50;100.00;102002.88;5017882;28;20049;-88
2022/12/01 02:00:45;;;;;;;66.93;60.53;;;;;;;1.49;100.00;101991.56;5016062;28;20050;-88
2022/12/01 02:03:18;;;;;;;63.00;57.30;;;;;;;1.71;100.00;101985.53;5017951;28;20046;-88
2022/12/01 02:05:47;;;;;;;80.90;73.32;;;;;;;1.50;100.00;101980.13;5018074;28;20050;-88
2022/12/01 02:08:16;;;;;;;78.88;71.45;;;;;;;1.40;100.00;101980.94;5021485;28;20499;-88
2022/12/01 02:11:00;;;;;;;73.43;66.32;;;;;;;1.20;100.00;101971.97;5016590;28;20534;-88
2022/12/01 02:13:41;;;;;;;67.35;60.78;;;;;;;1.28;100.00;101975.69;5016756;28;20057;-89
2022/12/01 02:16:17;;;;;;;66.80;60.63;;;;;;;1.30;100.00;101984.25;5017849;28;20049;-88
2022/12/01 02:18:53;;;;;;;68.00;61.20;;;;;;;1.25;100.00;101985.53;5027843;28;20042;-88
2022/12/01 02:21:34;;;;;;;68.20;61.53;;;;;;;1.20;100.00;101991.09;5017993;28;20573;-88
2022/12/01 02:24:50;;;;;;;67.57;60.58;;;;;;;1.06;100.00;101993.91;5017059;28;20061;-88
2022/12/01 02:27:33;;;;;;;67.85;60.25;;;;;;;1.27;100.00;101987.09;4969843;28;20051;-88
2022/12/01 02:30:09;;;;;;;71.13;64.53;;;;;;;1.19;100.00;101991.25;4967099;28;20054;-88
2022/12/01 02:33:04;;;;;;;69.13;62.03;;;;;;;1.11;100.00;101994.41;4967649;28;20047;-87
2022/12/01 02:35:37;;;;;;;68.60;61.20;;;;;;;1.12;100.00;101978.59;4988073;28;20049;-88
2022/12/01 02:38:15;;;;;;;71.97;64.07;;;;;;;1.04;100.00;101982.72;5018582;28;20045;-88
2022/12/01 02:40:46;;;;;;;72.13;63.70;;;;;;;1.06;100.00;101984.28;5032994;28;20123;-88
2022/12/01 02:43:20;;;;;;;70.85;63.50;;;;;;;1.03;100.00;101974.06;5023234;28;20046;-88
2022/12/01 02:45:53;;;;;;;71.90;58.85;;;;;;;1.05;100.00;101972.13;5015028;28;20049;-88
2022/12/01 02:48:48;;;;;;;67.90;60.50;;;;;;;2.24;100.00;101982.31;5024343;28;20535;-88
2022/12/01 02:51:20;;;;;;;65.97;58.85;;;;;;;1.13;100.00;101989.91;5018397;28;20061;-89
2022/12/01 02:53:49;;;;;;;76.25;68.20;;;;;;;1.04;100.00;101995.81;5025035;28;20132;-88
2022/12/01 02:56:22;;;;;;;71.72;63.90;;;;;;;1.23;100.00;101992.66;5019124;28;20041;-88
2022/12/01 02:58:49;;;;;;;69.80;61.03;;;;;;;1.26;100.00;101992.44;5021665;28;20064;-88
2022/12/01 03:05:31;;;;;;;81.10;72.95;;;;;;;1.29;100.00;101995.66;4920512;29;20067;-84
2022/12/01 03:11:33;;;;;;;71.20;63.42;;;;;;;0.99;100.00;101997.94;4912244;29;20062;-81
2022/12/01 03:14:45;;;;;;;73.60;65.68;;;;;;;1.71;100.00;101985.53;4959415;28;20046;-82
2022/12/01 03:37:20;;;;;;;75.72;67.22;;;;;;;1.01;100.00;101982.97;4959606;28;20070;-80
2022/12/01 03:40:36;;;;;;;77.00;68.68;;;;;;;1.01;100.00;101977.72;4967116;28;20039;-82
2022/12/01 03:43:24;;;;;;;75.40;67.25;;;;;;;0.98;100.00;101985.81;4966566;28;20089;-82
2022/12/01 03:46:50;;;;;;;73.18;64.53;;;;;;;1.21;100.00;101987.56;4968961;28;20054;-81
2022/12/01 03:49:53;;;;;;;64.40;57.47;;;;;;;1.44;100.00;101985.00;4966200;28;20043;-81
2022/12/01 04:30:10;;;;;;;73.30;65.35;;;;;;;1.02;100.00;101985.44;6192209;23;20036;-87
2022/12/01 04:33:09;;;;;;;66.20;59.20;;;;;;;1.08;100.00;101982.38;6101345;23;20440;-88
2022/12/01 09:55:33;;;;;;;51.25;47.05;;;;;;;0.75;100.00;101951.66;5001783;27;20387;-82
2022/12/01 09:58:07;;;;;;;52.25;47.70;;;;;;;0.59;100.00;101959.81;5014151;28;20053;-81
2022/12/01 10:00:46;;;;;;;52.72;48.22;;;;;;;0.54;100.00;101945.38;5010058;28;20450;-81
2022/12/01 10:03:27;;;;;;;56.40;51.63;;;;;;;0.62;100.00;101962.19;5010638;28;20439;-82
2022/12/01 10:06:03;;;;;;;54.70;49.88;;;;;;;0.58;100.00;101960.75;5007160;28;20053;-81
2022/12/01 10:08:38;;;;;;;54.25;49.22;;;;;;;0.59;100.00;101953.75;5005630;28;20056;-83
2022/12/01 10:11:31;;;;;;;52.10;47.63;;;;;;;0.72;100.00;101959.75;5007313;28;20085;-83
2022/12/01 10:13:59;;;;;;;58.22;53.25;;;;;;;0.64;100.00;101959.47;5005693;28;20058;-82
2022/12/01 10:20:22;;;;;;;53.70;48.70;;;;;;;0.79;100.00;101947.91;4993190;28;20134;-82
2022/12/01 10:23:35;;;;;;;52.17;47.70;;;;;;;0.67;100.00;101949.63;5008704;28;20050;-82
2022/12/01 10:26:16;;;;;;;55.55;51.20;;;;;;;0.87;100.00;101953.41;4947997;28;20198;-82
2022/12/01 10:28:59;;;;;;;61.13;56.33;;;;;;;1.07;100.00;101933.63;5011119;28;20049;-84
2022/12/01 10:31:54;;;;;;;53.63;49.13;;;;;;;0.80;100.00;101946.13;5010497;28;20050;-84
2022/12/01 10:34:24;;;;;;;56.50;52.10;;;;;;;0.49;100.00;101948.34;5008961;28;20478;-83
2022/12/01 10:37:02;;;;;;;58.47;53.70;;;;;;;0.63;100.00;101942.94;5008608;28;20054;-83
2022/12/01 10:39:34;;;;;;;70.95;64.43;;;;;;;0.63;100.00;101939.50;5002594;28;20050;-84
2022/12/01 10:42:08;;;;;;;69.35;62.53;;;;;;;0.59;100.00;101930.22;5010643;28;20050;-83
2022/12/01 10:45:08;;;;;;;58.17;53.17;;;;;;;0.67;100.00;101935.72;5009765;28;20042;-83
2022/12/01 10:47:59;;;;;;;62.20;55.55;;;;;;;0.78;100.00;101924.47;5006768;28;20086;-84
2022/12/01 10:50:28;;;;;;;62.20;56.30;;;;;;;0.57;100.00;101927.69;5009461;28;20494;-82
2022/12/01 10:52:55;;;;;;;62.75;57.42;;;;;;;0.51;100.00;101929.91;5009310;28;20445;-82
2022/12/01 10:55:46;;;;;;;60.85;55.17;;;;;;;0.59;100.00;101925.81;5008912;28;20069;-82
2022/12/01 10:58:20;;;;;;;63.80;57.50;;;;;;;0.57;100.00;101913.78;4996421;28;20058;-82
2022/12/01 11:01:07;;;;;;;53.40;49.08;;;;;;;0.68;100.00;101922.53;5006200;28;20043;-86
2022/12/01 11:03:38;;;;;;;53.20;48.90;;;;;;;0.73;100.00;101919.59;5009263;28;20046;-84
2022/12/01 11:06:10;;;;;;;58.63;54.17;;;;;;;0.65;100.00;101917.53;5001298;28;20390;-82
2022/12/01 11:08:40;;;;;;;;;;;;;;;0.74;100.00;101907.34;4996802;28;20061;-81
2022/12/01 11:11:32;;;;;;;54.72;50.33;;;;;;;0.74;100.00;101894.25;4993125;28;20266;-83
2022/12/01 11:14:02;;;;;;;51.70;47.58;;;;;;;0.72;100.00;101901.38;4996712;28;20133;-82
2022/12/01 11:16:53;;;;;;;58.03;53.47;;;;;;;0.72;100.00;101898.75;4996973;28;20051;-84
2022/12/01 11:19:33;;;;;;;56.60;52.20;;;;;;;0.89;100.00;101901.81;4996843;28;20090;-82
2022/12/01 11:22:04;;;;;;;55.65;51.38;;;;;;;0.61;100.00;101896.94;4995126;28;20056;-82
2022/12/01 11:24:56;;;;;;;56.05;51.55;;;;;;;0.58;100.00;101899.78;4992520;28;20061;-82
2022/12/01 11:27:30;;;;;;;53.97;49.80;;;;;;;0.59;100.00;101901.44;4996435;28;20383;-81
2022/12/01 11:30:03;;;;;;;55.05;50.65;;;;;;;0.65;100.00;101891.38;4989841;28;20498;-83
2022/12/01 11:32:37;;;;;;;60.83;56.10;;;;;;;0.68;100.00;101896.38;4995203;28;20470;-83
2022/12/01 11:35:21;;;;;;;53.25;49.08;;;;;;;1.27;100.00;101892.88;4979530;28;20105;-82
2022/12/01 11:37:49;;;;;;;49.40;45.67;;;;;;;0.79;100.00;101890.38;4986802;28;20050;-82
2022/12/01 11:40:20;;;;;;;48.65;44.80;;;;;;;0.82;100.00;101891.94;4989723;28;20054;-83
2022/12/01 11:42:50;;;;;;;51.95;48.03;;;;;;;0.84;100.00;101896.06;4978336;28;20047;-83
2022/12/01 11:45:48;;;;;;;52.17;48.15;;;;;;;0.87;100.00;101884.56;4973917;28;20034;-82
2022/12/01 11:48:27;;;;;;;50.13;46.03;;;;;;;1.12;100.00;101881.78;4994864;28;20081;-84
2022/12/01 11:51:04;;;;;;;54.38;50.17;;;;;;;0.95;100.00;101876.97;4994241;28;20047;-84
2022/12/01 11:53:46;;;;;;;59.47;55.08;;;;;;;0.77;100.00;101889.63;4998805;28;20042;-84
2022/12/01 11:56:21;;;;;;;64.68;59.80;;;;;;;0.81;100.00;101885.00;5001306;28;20064;-82
2022/12/01 11:58:50;;;;;;;59.05;54.38;;;;;;;0.71;100.00;101899.72;5004377;28;20039;-84
2022/12/01 12:01:34;;;;;;;57.33;52.70;;;;;;;0.74;100.00;101894.25;5001639;28;20061;-83
2022/12/01 12:04:16;;;;;;;54.30;50.28;;;;;;;0.80;100.00;101896.44;4999668;28;20086;-81
2022/12/01 12:09:48;;;;;;;57.70;52.85;;;;;;;0.71;100.00;101890.09;5087950;27;20486;-82
2022/12/01 12:12:38;;;;;;;54.78;50.30;;;;;;;0.84;100.00;101897.84;5075859;28;20048;-83
2022/12/01 12:15:17;;;;;;;51.53;47.42;;;;;;;0.77;100.00;101894.88;5076199;28;20044;-84
2022/12/01 12:18:01;;;;;;;52.05;48.05;;;;;;;0.80;100.00;101894.63;5075904;28;20396;-83
2022/12/01 12:20:41;;;;;;;57.97;53.17;;;;;;;0.72;100.00;101899.59;5074371;28;20488;-84
2022/12/01 12:23:25;;;;;;;52.50;48.20;;;;;;;0.77;100.00;101899.28;5075457;28;20362;-82
2022/12/01 12:26:02;;;;;;;53.58;49.28;;;;;;;0.79;100.00;101906.06;5074412;28;20114;-81
2022/12/01 12:28:46;;;;;;;51.58;47.38;;;;;;;0.86;100.00;101909.06;5076628;28;20044;-82
2022/12/01 12:31:22;;;;;;;52.83;48.65;;;;;;;0.90;100.00;101900.84;5078156;28;20060;-82
2022/12/01 12:34:06;;;;;;;55.92;51.22;;;;;;;0.88;100.00;101905.38;5069143;28;20052;-84
2022/12/01 12:36:47;;;;;;;54.13;49.78;;;;;;;0.92;100.00;101900.75;5064272;28;20052;-83
2022/12/01 12:39:34;;;;;;;62.47;57.22;;;;;;;0.88;100.00;101904.56;5067560;28;20049;-82
2022/12/01 12:42:09;;;;;;;53.45;49.08;;;;;;;0.76;100.00;101892.38;5070250;28;20102;-83
2022/12/01 12:44:51;;;;;;;51.50;47.70;;;;;;;1.05;100.00;101903.28;5065271;28;20037;-83
2022/12/01 12:47:37;;;;;;;52.67;48.58;;;;;;;0.69;100.00;101912.88;5065672;28;20512;-82
2022/12/01 12:53:08;;;;;;;50.10;46.20;;;;;;;0.87;100.00;101903.69;5071575;27;20406;-83
2022/12/01 12:55:39;;;;;;;50.95;46.85;;;;;;;0.79;100.00;101907.84;5109356;28;20062;-83
2022/12/01 12:58:15;;;;;;;53.03;48.53;;;;;;;0.80;100.00;101904.28;5105769;28;20063;-82
2022/12/01 13:00:48;;;;;;;51.70;47.25;;;;;;;0.77;100.00;101914.97;5111074;28;20063;-84
2022/12/01 13:03:37;;;;;;;50.38;46.08;;;;;;;0.72;100.00;101907.44;5109313;28;20072;-82
2022/12/01 13:06:09;;;;;;;52.05;47.50;;;;;;;0.86;100.00;101906.44;5108519;28;20059;-82
2022/12/01 13:08:50;;;;;;;54.83;50.38;;;;;;;0.85;100.00;101910.00;5110514;28;20063;-83
2022/12/01 13:11:24;;;;;;;56.38;51.92;;;;;;;1.07;100.00;101909.25;5097251;28;20488;-83
2022/12/01 13:14:06;;;;;;;54.42;49.85;;;;;;;0.82;100.00;101905.84;5101844;28;20049;-83
2022/12/01 13:16:37;;;;;;;55.28;50.20;;;;;;;0.75;100.00;101901.16;5096126;28;20421;-81
2022/12/01 13:19:30;;;;;;;51.80;47.28;;;;;;;0.77;100.00;101883.56;4969082;28;20056;-81
2022/12/01 13:22:05;;;;;;;55.70;51.42;;;;;;;1.10;100.00;101893.31;5060586;28;20528;-83
2022/12/01 13:24:34;;;;;;;56.60;52.05;;;;;;;0.90;100.00;101889.56;5062002;28;20064;-81
2022/12/01 13:27:05;;;;;;;54.50;49.85;;;;;;;0.91;100.00;101893.84;5047261;28;20053;-83
2022/12/01 13:29:44;;;;;;;52.17;47.42;;;;;;;0.79;100.00;101892.16;5078636;28;20460;-81
2022/12/01 13:32:27;;;;;;;57.38;52.13;;;;;;;0.84;100.00;101901.31;5075234;28;20047;-83
2022/12/01 13:34:55;;;;;;;57.90;52.90;;;;;;;1.20;100.00;101889.03;5078152;28;20048;-82
2022/12/01 13:37:55;;;;;;;52.17;48.17;;;;;;;1.30;100.00;101894.41;5067143;28;20048;-81
2022/12/01 13:40:33;;;;;;;54.33;49.63;;;;;;;0.87;100.00;101890.59;5041313;28;20524;-85
2022/12/01 13:43:06;;;;;;;54.50;49.97;;;;;;;1.08;100.00;101877.72;5066473;28;20120;-83
2022/12/01 13:45:41;;;;;;;54.95;50.55;;;;;;;1.03;100.00;101868.53;5065979;28;20060;-82
2022/12/01 13:48:27;;;;;;;70.88;64.03;;;;;;;0.83;100.00;101886.56;5067479;28;20040;-83
2022/12/01 13:51:01;;;;;;;51.70;47.20;;;;;;;1.06;100.00;101873.53;5067665;28;20052;-83
2022/12/01 13:53:34;;;;;;;51.42;46.85;;;;;;;0.81;100.00;101880.59;5064171;28;20041;-81
2022/12/01 13:56:24;;;;;;;62.03;56.10;;;;;;;0.82;100.00;101878.84;5067239;28;20049;-83
2022/12/01 13:58:53;;;;;;;66.47;59.75;;;;;;;0.67;100.00;101879.03;5065333;28;20052;-84
2022/12/01 14:01:48;;;;;;;75.63;62.70;;;;;;;0.68;100.00;101892.94;5065614;28;20044;-82
2022/12/01 14:04:41;;;;;;;64.32;58.05;;;;;;;0.67;100.00;101891.28;5053694;28;20092;-83
2022/12/01 14:07:36;;;;;;;53.38;48.47;;;;;;;0.69;100.00;101886.75;5049167;28;20060;-82
2022/12/01 14:10:26;;;;;;;60.38;54.38;;;;;;;0.69;100.00;101884.94;5052473;28;20052;-82
2022/12/01 14:12:59;;;;;;;60.50;54.75;;;;;;;0.64;100.00;101876.63;5048678;28;20485;-82
2022/12/01 14:15:43;;;;;;;52.22;47.33;;;;;;;0.77;100.00;101878.34;5054214;28;20053;-82
2022/12/01 14:18:26;;;;;;;54.65;49.75;;;;;;;1.07;100.00;101865.59;5051205;28;20049;-83
2022/12/01 14:20:54;;;;;;;61.00;55.05;;;;;;;0.77;100.00;101868.72;5049498;28;20041;-82
2022/12/01 14:23:27;;;;;;;58.58;53.10;;;;;;;0.79;100.00;101877.28;5045656;28;20072;-81
2022/12/01 14:26:13;;;;;;;55.65;50.60;;;;;;;1.57;100.00;101875.75;5052616;28;20045;-83
2022/12/01 14:29:19;;;;;;;54.97;49.83;;;;;;;0.70;100.00;101880.59;5052880;28;20393;-83
2022/12/01 14:32:25;;;;;;;57.28;52.05;;;;;;;0.78;100.00;101880.81;5053160;28;20553;-84
2022/12/01 14:35:13;;;;;;;54.53;49.60;;;;;;;1.33;100.00;101879.31;5044094;28;20397;-82
2022/12/01 14:37:45;;;;;;;56.78;52.28;;;;;;;0.95;100.00;101882.19;5015261;28;20053;-82
2022/12/01 14:40:18;;;;;;;55.65;51.03;;;;;;;0.60;100.00;101896.09;5053234;28;20115;-82
2022/12/01 14:45:40;;;;;;;56.25;51.03;;;;;;;0.44;100.00;101899.00;5052379;28;20522;-83
2022/12/01 14:48:12;;;;;;;52.83;48.30;;;;;;;0.68;100.00;101901.59;5053393;28;20045;-84
2022/12/01 14:50:44;;;;;;;63.10;57.17;;;;;;;0.68;100.00;101899.00;5052676;28;20067;-84
2022/12/01 14:53:25;;;;;;;56.97;51.63;;;;;;;0.66;100.00;101895.63;5048281;28;20114;-83
2022/12/01 14:55:57;;;;;;;55.38;50.22;;;;;;;0.64;100.00;101900.16;5047821;28;20045;-84
2022/12/01 14:58:27;;;;;;;53.58;48.35;;;;;;;0.71;100.00;101894.50;5054278;28;20041;-82
2022/12/01 15:01:09;;;;;;;53.38;48.75;;;;;;;0.84;100.00;101883.00;5047519;28;20201;-83
2022/12/01 15:03:43;;;;;;;55.45;50.58;;;;;;;0.65;100.00;101896.59;5054070;28;20060;-83
2022/12/01 15:06:24;;;;;;;50.92;46.38;;;;;;;1.05;100.00;101892.81;5053629;28;20098;-80
2022/12/01 15:09:07;;;;;;;52.80;48.28;;;;;;;0.73;100.00;101887.34;5053017;28;20062;-83
2022/12/01 15:11:39;;;;;;;52.13;47.42;;;;;;;0.70;100.00;101883.19;5052936;28;20056;-82
2022/12/01 15:14:22;;;;;;;51.43;46.70;;;;;;;0.72;100.00;101888.31;5053253;28;20366;-85
2022/12/01 15:16:49;;;;;;;72.32;61.65;;;;;;;0.69;100.00;101882.34;5053690;28;20702;-83
2022/12/01 15:19:24;;;;;;;52.97;48.05;;;;;;;0.91;100.00;101889.44;5050143;28;20052;-82
2022/12/01 15:22:00;;;;;;;56.80;50.70;;;;;;;0.66;100.00;101887.78;5047882;28;20049;-82
2022/12/01 15:24:29;;;;;;;51.72;47.00;;;;;;;0.75;100.00;101885.47;5051501;28;20051;-84
2022/12/01 15:27:01;;;;;;;54.25;49.25;;;;;;;0.87;100.00;101885.38;5038389;28;20103;-82
2022/12/01 15:29:30;;;;;;;53.30;48.65;;;;;;;0.98;100.00;101889.00;5045763;28;20041;-85
2022/12/01 15:32:00;;;;;;;50.28;45.83;;;;;;;0.91;100.00;101886.00;5051245;28;20052;-82
2022/12/01 15:34:31;;;;;;;61.35;55.45;;;;;;;0.77;100.00;101897.47;5050568;28;20057;-83
2022/12/01 15:37:02;;;;;;;59.72;53.90;;;;;;;0.69;100.00;101894.59;5053269;28;20045;-81
2022/12/01 15:42:26;;;;;;;54.20;49.67;;;;;;;1.13;100.00;101895.69;5086312;27;20398;-84
2022/12/01 15:45:00;;;;;;;57.97;52.80;;;;;;;0.74;100.00;101902.94;5058574;28;20033;-84
2022/12/01 15:47:34;;;;;;;67.97;60.92;;;;;;;0.78;100.00;101903.53;5063785;28;20072;-84
2022/12/01 15:50:02;;;;;;;78.35;67.63;;;;;;;0.97;100.00;101906.47;5067020;28;20120;-84
2022/12/01 15:52:42;;;;;;;93.38;77.50;;;;;;;0.67;100.00;101910.41;5059235;28;20055;-83
2022/12/01 15:55:27;;;;;;;146.32;97.65;;;;;;;0.73;100.00;101911.75;5063051;28;20060;-84
2022/12/01 15:57:57;;;;;;;73.82;57.70;;;;;;;0.67;100.00;101913.03;5068208;28;20437;-83
2022/12/01 16:00:25;;;;;;;80.65;67.25;;;;;;;0.59;100.00;101915.34;5067270;28;20052;-85
2022/12/01 16:02:54;;;;;;;85.88;63.88;;;;;;;0.45;100.00;101911.13;5059608;28;20048;-83
2022/12/01 16:05:25;;;;;;;98.93;66.07;;;;;;;0.59;100.00;101914.53;5057465;28;20056;-84
2022/12/01 16:08:14;;;;;;;55.83;50.42;;;;;;;0.55;100.00;101916.53;5064804;28;20049;-84
2022/12/01 16:10:41;;;;;;;57.13;51.45;;;;;;;0.50;100.00;101910.78;5068264;28;20080;-82
2022/12/01 16:13:43;;;;;;;53.75;48.40;;;;;;;0.51;100.00;101916.84;5067380;28;20052;-84
2022/12/01 16:30:20;;;;;;;47.57;43.93;;;;;;;0.79;100.00;101913.91;5024570;27;2106912;-90
2022/12/01 16:32:59;;;;;;;;;;;;;;;;;;;;;
2022/12/01 16:35:34;;;;;;;43.85;40.53;;;;;;;0.72;100.00;101898.75;5113034;28;20512;-87
2022/12/01 16:38:25;;;;;;;42.88;39.47;;;;;;;0.66;100.00;101900.03;5072228;27;20049;-88
2022/12/01 16:40:54;;;;;;;45.03;41.63;;;;;;;0.65;100.00;101895.78;5055343;28;20055;-89
2022/12/01 16:43:29;;;;;;;46.28;42.78;;;;;;;1.09;100.00;101909.94;5051944;28;20450;-89
2022/12/01 16:46:06;;;;;;;50.53;46.78;;;;;;;0.91;100.00;101905.16;5047987;28;20469;-90
2022/12/01 16:48:36;;;;;;;54.55;50.40;;;;;;;1.98;100.00;101908.38;5046413;28;20053;-90
2022/12/01 16:51:07;;;;;;;47.85;44.28;;;;;;;0.93;100.00;101906.81;5050703;28;20576;-90
2022/12/01 16:53:42;;;;;;;54.75;50.30;;;;;;;0.84;100.00;101896.06;5054109;28;20045;-90
2022/12/01 16:56:24;;;;;;;55.20;50.33;;;;;;;0.71;100.00;101892.69;5061191;28;20132;-91
2022/12/01 16:59:03;;;;;;;54.53;50.03;;;;;;;0.72;100.00;101904.81;5040351;28;20045;-88
2022/12/01 17:01:42;;;;;;;55.15;50.53;;;;;;;0.80;100.00;101912.13;5047488;28;20057;-87
2022/12/01 17:04:12;;;;;;;52.38;47.88;;;;;;;0.93;100.00;101912.03;5049983;28;20049;-86
2022/12/01 17:07:02;;;;;;;47.83;43.90;;;;;;;0.70;100.00;101925.03;5048171;28;20076;-87
2022/12/01 17:09:29;;;;;;;68.22;54.85;;;;;;;0.55;100.00;101923.53;5048624;28;20443;-86
2022/12/01 17:12:03;;;;;;;52.17;47.45;;;;;;;0.68;100.00;101924.31;5049394;28;20459;-86
2022/12/01 17:14:30;;;;;;;54.08;49.90;;;;;;;0.62;100.00;101935.22;5038903;28;20082;-90
2022/12/01 17:16:58;;;;;;;62.20;56.35;;;;;;;0.49;100.00;101943.13;5042515;28;20053;-91
2022/12/01 17:19:38;;;;;;;57.97;51.75;;;;;;;0.45;100.00;101939.03;5044345;28;20534;-90
2022/12/01 17:22:05;;;;;;;54.15;48.80;;;;;;;0.60;100.00;101945.78;5053806;28;20143;-88
2022/12/01 17:24:38;;;;;;;85.32;64.78;;;;;;;0.42;100.00;101947.09;5055413;28;20458;-88
2022/12/01 17:27:05;;;;;;;62.42;55.88;;;;;;;0.52;100.00;101962.97;5050325;28;20057;-90
2022/12/01 17:29:33;;;;;;;55.15;49.72;;;;;;;0.62;100.00;101948.28;5045166;28;20057;-87
2022/12/01 17:32:08;;;;;;;53.67;49.15;;;;;;;0.63;100.00;101956.00;5038733;28;20080;-88
2022/12/01 17:34:37;;;;;;;60.72;55.40;;;;;;;0.50;100.00;101959.63;5026707;28;20068;-90
2022/12/01 17:37:26;;;;;;;;;;;;;;;;;;;;;
2022/12/01 17:40:07;;;;;;;63.17;56.78;;;;;;;0.36;100.00;101948.38;5040615;28;20049;-87
2022/12/01 17:42:49;;;;;;;57.92;52.72;;;;;;;0.48;100.00;101951.06;5032036;28;20049;-88
2022/12/01 17:45:16;;;;;;;58.97;53.90;;;;;;;0.50;100.00;101959.63;5034824;28;20049;-90
2022/12/01 17:48:05;;;;;;;53.65;48.85;;;;;;;0.58;100.00;101963.38;5044085;28;20046;-87
2022/12/01 17:50:32;;;;;;;56.72;51.83;;;;;;;0.69;100.00;101952.13;5033981;28;20141;-89
2022/12/01 17:53:01;;;;;;;58.13;52.25;;;;;;;0.57;100.00;101958.25;5035902;28;20063;-90
2022/12/01 17:55:28;;;;;;;56.97;52.13;;;;;;;0.41;100.00;101958.50;4990359;28;20049;-90
2022/12/01 17:57:58;;;;;;;60.97;55.08;;;;;;;0.49;100.00;101960.59;5025849;28;20053;-90
2022/12/01 18:00:33;;;;;;;59.67;54.03;;;;;;;0.67;100.00;101967.94;5035879;28;20049;-89
2022/12/01 18:03:06;;;;;;;71.22;63.63;;;;;;;0.60;100.00;101947.56;5038478;28;20052;-90
2022/12/01 18:05:35;;;;;;;51.83;47.60;;;;;;;0.63;100.00;101937.72;5038560;28;20048;-89
2022/12/01 18:08:03;;;;;;;58.60;53.92;;;;;;;0.61;100.00;101949.25;5038458;28;20057;-89
2022/12/01 18:10:29;;;;;;;46.33;42.33;;;;;;;0.55;100.00;101939.22;4993953;28;20080;-90
2022/12/01 18:13:00;;;;;;;44.30;40.88;;;;;;;0.63;100.00;101937.72;5052519;28;20609;-89
2022/12/01 18:15:30;;;;;;;47.10;43.47;;;;;;;0.64;100.00;101941.19;5049827;28;20045;-90
2022/12/01 18:17:57;;;;;;;50.78;46.80;;;;;;;0.69;100.00;101954.72;5044075;28;20131;-89
2022/12/01 18:20:33;;;;;;;51.17;46.72;;;;;;;0.61;100.00;101947.47;5037943;28;20045;-89
2022/12/01 18:23:17;;;;;;;59.38;54.92;;;;;;;0.84;100.00;101953.63;5028854;28;20529;-89
2022/12/01 18:25:45;;;;;;;61.50;56.70;;;;;;;0.59;100.00;101956.34;5036209;28;20048;-90
2022/12/01 18:28:13;;;;;;;62.42;57.28;;;;;;;0.50;100.00;101957.84;5034283;28;20049;-89
2022/12/01 18:30:42;;;;;;;61.10;56.53;;;;;;;0.46;100.00;101969.47;5034887;28;20056;-89
2022/12/01 18:33:16;;;;;;;68.18;61.83;;;;;;;0.48;100.00;101970.19;5039608;28;20061;-90
2022/12/01 18:35:45;;;;;;;72.68;63.45;;;;;;;0.50;100.00;101964.88;5036564;28;20110;-90
2022/12/01 18:38:14;;;;;;;66.10;60.35;;;;;;;0.51;100.00;101971.75;5038904;28;20048;-90
2022/12/01 18:40:46;;;;;;;51.33;46.60;;;;;;;0.46;100.00;101972.09;5045525;28;20053;-89
2022/12/01 18:43:14;;;;;;;56.33;50.05;;;;;;;0.52;100.00;101981.28;5021194;28;20095;-90
2022/12/01 18:45:42;;;;;;;47.22;42.88;;;;;;;0.99;100.00;101969.16;5044539;28;20049;-89
2022/12/01 18:48:09;;;;;;;48.47;44.45;;;;;;;0.73;100.00;101979.75;5036515;28;20483;-90